sensor_id;sensor_type;location;lat;lon;timestamp;P1;durP1;ratioP1;P2;durP2;ratioP2
44508;SDS011;30214;52.246;14.408;2022-10-31T00:03:08;31.02;;;11.80;;
44508;SDS011;30214;52.246;14.408;2022-10-31T00:06:41;23.23;;;10.73;;
44508;SDS011;30214;52.246;14.408;2022-10-31T00:17:47;24.13;;;11.60;;
44508;SDS011;30214;52.246;14.408;2022-10-31T00:21:17;23.80;;;10.80;;
44508;SDS011;30214;52.246;14.408;2022-10-31T00:25:18;20.80;;;9.43;;
44508;SDS011;30214;52.246;14.408;2022-10-31T00:28:27;18.33;;;10.75;;
44508;SDS011;30214;52.246;14.408;2022-10-31T00:35:52;23.50;;;10.23;;
44508;SDS011;30214;52.246;14.408;2022-10-31T00:39:06;20.08;;;9.45;;
44508;SDS011;30214;52.246;14.408;2022-10-31T00:42:47;23.15;;;10.02;;
44508;SDS011;30214;52.246;14.408;2022-10-31T00:46:13;19.40;;;9.18;;
44508;SDS011;30214;52.246;14.408;2022-10-31T00:53:36;19.02;;;8.40;;
44508;SDS011;30214;52.246;14.408;2022-10-31T01:00:13;30.63;;;10.88;;
44508;SDS011;30214;52.246;14.408;2022-10-31T01:03:17;17.98;;;9.60;;
44508;SDS011;30214;52.246;14.408;2022-10-31T01:06:33;20.30;;;8.45;;
44508;SDS011;30214;52.246;14.408;2022-10-31T01:17:07;21.55;;;8.20;;
44508;SDS011;30214;52.246;14.408;2022-10-31T01:20:28;15.48;;;8.55;;
44508;SDS011;30214;52.246;14.408;2022-10-31T01:24:13;21.10;;;9.73;;
44508;SDS011;30214;52.246;14.408;2022-10-31T01:27:28;20.52;;;8.68;;
44508;SDS011;30214;52.246;14.408;2022-10-31T01:30:57;22.17;;;8.85;;
44508;SDS011;30214;52.246;14.408;2022-10-31T01:34:37;18.25;;;8.70;;
44508;SDS011;30214;52.246;14.408;2022-10-31T01:37:48;18.40;;;7.45;;
44508;SDS011;30214;52.246;14.408;2022-10-31T01:52:36;20.98;;;8.73;;
44508;SDS011;30214;52.246;14.408;2022-10-31T01:56:16;20.92;;;8.35;;
44508;SDS011;30214;52.246;14.408;2022-10-31T01:59:53;17.38;;;8.05;;
44508;SDS011;30214;52.246;14.408;2022-10-31T02:03:08;23.60;;;8.65;;
44508;SDS011;30214;52.246;14.408;2022-10-31T02:13:38;15.38;;;8.18;;
44508;SDS011;30214;52.246;14.408;2022-10-31T02:16:56;15.90;;;8.43;;
44508;SDS011;30214;52.246;14.408;2022-10-31T02:20:35;27.17;;;10.90;;
44508;SDS011;30214;52.246;14.408;2022-10-31T02:44:20;25.92;;;10.27;;
44508;SDS011;30214;52.246;14.408;2022-10-31T02:48:06;27.38;;;10.63;;
44508;SDS011;30214;52.246;14.408;2022-10-31T02:51:37;24.10;;;10.48;;
44508;SDS011;30214;52.246;14.408;2022-10-31T02:55:39;29.85;;;11.15;;
44508;SDS011;30214;52.246;14.408;2022-10-31T03:07:28;42.30;;;14.52;;
44508;SDS011;30214;52.246;14.408;2022-10-31T03:11:05;32.03;;;12.55;;
44508;SDS011;30214;52.246;14.408;2022-10-31T03:14:23;30.20;;;12.43;;
44508;SDS011;30214;52.246;14.408;2022-10-31T03:17:29;37.13;;;13.90;;
44508;SDS011;30214;52.246;14.408;2022-10-31T03:21:04;28.45;;;11.73;;
44508;SDS011;30214;52.246;14.408;2022-10-31T03:28:16;27.33;;;10.90;;
44508;SDS011;30214;52.246;14.408;2022-10-31T03:31:38;27.65;;;11.63;;
44508;SDS011;30214;52.246;14.408;2022-10-31T03:35:35;33.60;;;12.52;;
44508;SDS011;30214;52.246;14.408;2022-10-31T03:39:13;30.60;;;11.48;;
44508;SDS011;30214;52.246;14.408;2022-10-31T03:50:28;50.92;;;14.38;;
44508;SDS011;30214;52.246;14.408;2022-10-31T03:54:29;31.83;;;13.88;;
44508;SDS011;30214;52.246;14.408;2022-10-31T03:58:07;52.10;;;17.15;;
44508;SDS011;30214;52.246;14.408;2022-10-31T04:01:57;48.47;;;19.75;;
44508;SDS011;30214;52.246;14.408;2022-10-31T04:09:36;53.67;;;14.80;;
44508;SDS011;30214;52.246;14.408;2022-10-31T04:13:27;30.67;;;11.65;;
44508;SDS011;30214;52.246;14.408;2022-10-31T04:17:07;19.10;;;9.68;;
44508;SDS011;30214;52.246;14.408;2022-10-31T04:20:58;22.00;;;9.60;;
44508;SDS011;30214;52.246;14.408;2022-10-31T04:28:32;78.53;;;27.60;;
44508;SDS011;30214;52.246;14.408;2022-10-31T04:31:41;77.82;;;26.50;;
44508;SDS011;30214;52.246;14.408;2022-10-31T04:34:48;37.70;;;15.82;;
44508;SDS011;30214;52.246;14.408;2022-10-31T04:38:07;32.70;;;13.70;;
44508;SDS011;30214;52.246;14.408;2022-10-31T04:41:57;34.30;;;14.13;;
44508;SDS011;30214;52.246;14.408;2022-10-31T04:45:57;28.50;;;10.93;;
44508;SDS011;30214;52.246;14.408;2022-10-31T04:49:28;27.20;;;11.57;;
44508;SDS011;30214;52.246;14.408;2022-10-31T04:52:58;15.85;;;8.85;;
44508;SDS011;30214;52.246;14.408;2022-10-31T04:56:47;21.27;;;9.50;;
44508;SDS011;30214;52.246;14.408;2022-10-31T05:00:05;13.80;;;8.40;;
44508;SDS011;30214;52.246;14.408;2022-10-31T05:03:38;19.23;;;9.23;;
44508;SDS011;30214;52.246;14.408;2022-10-31T05:06:57;19.10;;;9.93;;
44508;SDS011;30214;52.246;14.408;2022-10-31T05:10:28;29.67;;;11.60;;
44508;SDS011;30214;52.246;14.408;2022-10-31T05:14:06;39.15;;;15.68;;
44508;SDS011;30214;52.246;14.408;2022-10-31T05:17:27;34.65;;;12.38;;
44508;SDS011;30214;52.246;14.408;2022-10-31T05:21:16;25.42;;;10.10;;
44508;SDS011;30214;52.246;14.408;2022-10-31T05:24:38;24.23;;;9.52;;
44508;SDS011;30214;52.246;14.408;2022-10-31T05:28:46;22.20;;;9.93;;
44508;SDS011;30214;52.246;14.408;2022-10-31T05:32:38;22.58;;;10.93;;
44508;SDS011;30214;52.246;14.408;2022-10-31T05:36:25;21.92;;;9.80;;
44508;SDS011;30214;52.246;14.408;2022-10-31T05:39:47;20.33;;;10.05;;
44508;SDS011;30214;52.246;14.408;2022-10-31T05:44:08;43.45;;;9.77;;
44508;SDS011;30214;52.246;14.408;2022-10-31T05:55:58;21.17;;;8.68;;
44508;SDS011;30214;52.246;14.408;2022-10-31T05:59:37;30.33;;;9.25;;
44508;SDS011;30214;52.246;14.408;2022-10-31T06:03:17;26.92;;;10.80;;
44508;SDS011;30214;52.246;14.408;2022-10-31T06:06:46;29.80;;;12.32;;
44508;SDS011;30214;52.246;14.408;2022-10-31T06:09:58;120.82;;;16.55;;
44508;SDS011;30214;52.246;14.408;2022-10-31T07:04:08;37.20;;;15.18;;
44508;SDS011;30214;52.246;14.408;2022-10-31T07:07:53;26.90;;;13.75;;
44508;SDS011;30214;52.246;14.408;2022-10-31T07:11:18;31.10;;;12.65;;
44508;SDS011;30214;52.246;14.408;2022-10-31T07:14:36;27.55;;;12.40;;
44508;SDS011;30214;52.246;14.408;2022-10-31T07:21:56;25.70;;;15.90;;
44508;SDS011;30214;52.246;14.408;2022-10-31T07:25:17;17.55;;;12.05;;
44508;SDS011;30214;52.246;14.408;2022-10-31T07:28:56;20.08;;;14.30;;
44508;SDS011;30214;52.246;14.408;2022-10-31T07:33:16;21.95;;;13.25;;
44508;SDS011;30214;52.246;14.408;2022-10-31T07:40:37;16.20;;;11.25;;
44508;SDS011;30214;52.246;14.408;2022-10-31T07:44:18;14.82;;;10.00;;
44508;SDS011;30214;52.246;14.408;2022-10-31T07:48:06;15.68;;;10.10;;
44508;SDS011;30214;52.246;14.408;2022-10-31T07:51:48;16.98;;;10.18;;
44508;SDS011;30214;52.246;14.408;2022-10-31T08:02:33;17.17;;;11.55;;
44508;SDS011;30214;52.246;14.408;2022-10-31T08:06:26;20.45;;;11.93;;
44508;SDS011;30214;52.246;14.408;2022-10-31T08:09:47;18.85;;;11.57;;
44508;SDS011;30214;52.246;14.408;2022-10-31T08:13:07;16.40;;;10.85;;
44508;SDS011;30214;52.246;14.408;2022-10-31T08:16:36;18.33;;;11.10;;
44508;SDS011;30214;52.246;14.408;2022-10-31T08:20:07;21.48;;;10.57;;
44508;SDS011;30214;52.246;14.408;2022-10-31T08:24:17;19.35;;;10.32;;
44508;SDS011;30214;52.246;14.408;2022-10-31T08:27:34;16.70;;;10.05;;
44508;SDS011;30214;52.246;14.408;2022-10-31T08:31:04;18.75;;;11.30;;
44508;SDS011;30214;52.246;14.408;2022-10-31T08:43:06;24.55;;;12.38;;
44508;SDS011;30214;52.246;14.408;2022-10-31T08:47:34;16.77;;;11.02;;
44508;SDS011;30214;52.246;14.408;2022-10-31T08:51:31;23.65;;;11.70;;
44508;SDS011;30214;52.246;14.408;2022-10-31T08:55:04;24.35;;;11.55;;
44508;SDS011;30214;52.246;14.408;2022-10-31T09:55:47;15.15;;;9.77;;
44508;SDS011;30214;52.246;14.408;2022-10-31T09:59:56;24.98;;;10.98;;
44508;SDS011;30214;52.246;14.408;2022-10-31T10:03:22;25.00;;;10.82;;
44508;SDS011;30214;52.246;14.408;2022-10-31T10:07:24;21.00;;;11.50;;
44508;SDS011;30214;52.246;14.408;2022-10-31T10:15:26;23.60;;;10.50;;
44508;SDS011;30214;52.246;14.408;2022-10-31T10:19:33;24.67;;;10.15;;
44508;SDS011;30214;52.246;14.408;2022-10-31T10:23:34;23.90;;;9.68;;
44508;SDS011;30214;52.246;14.408;2022-10-31T10:31:09;66.45;;;24.98;;
44508;SDS011;30214;52.246;14.408;2022-10-31T10:38:38;24.48;;;11.93;;
44508;SDS011;30214;52.246;14.408;2022-10-31T10:42:19;29.00;;;12.10;;
44508;SDS011;30214;52.246;14.408;2022-10-31T10:46:14;74.30;;;48.60;;
44508;SDS011;30214;52.246;14.408;2022-10-31T10:53:48;20.58;;;9.50;;
44508;SDS011;30214;52.246;14.408;2022-10-31T10:57:43;80.90;;;41.03;;
44508;SDS011;30214;52.246;14.408;2022-10-31T11:05:18;25.38;;;10.73;;
44508;SDS011;30214;52.246;14.408;2022-10-31T11:08:58;21.98;;;11.07;;
44508;SDS011;30214;52.246;14.408;2022-10-31T11:12:29;20.92;;;9.48;;
44508;SDS011;30214;52.246;14.408;2022-10-31T11:19:54;22.30;;;11.43;;
44508;SDS011;30214;52.246;14.408;2022-10-31T11:23:27;17.05;;;8.80;;
44508;SDS011;30214;52.246;14.408;2022-10-31T11:27:15;19.70;;;9.75;;
44508;SDS011;30214;52.246;14.408;2022-10-31T11:30:43;26.33;;;9.55;;
44508;SDS011;30214;52.246;14.408;2022-10-31T11:33:58;19.50;;;8.35;;
44508;SDS011;30214;52.246;14.408;2022-10-31T11:37:48;21.27;;;9.43;;
44508;SDS011;30214;52.246;14.408;2022-10-31T11:45:17;21.25;;;8.50;;
44508;SDS011;30214;52.246;14.408;2022-10-31T11:49:05;18.30;;;8.40;;
44508;SDS011;30214;52.246;14.408;2022-10-31T11:52:27;15.82;;;8.48;;
44508;SDS011;30214;52.246;14.408;2022-10-31T11:55:48;21.30;;;9.15;;
44508;SDS011;30214;52.246;14.408;2022-10-31T11:59:28;19.08;;;9.38;;
44508;SDS011;30214;52.246;14.408;2022-10-31T12:02:48;20.52;;;9.63;;
44508;SDS011;30214;52.246;14.408;2022-10-31T12:07:06;21.33;;;9.38;;
44508;SDS011;30214;52.246;14.408;2022-10-31T12:18:28;24.13;;;11.65;;
44508;SDS011;30214;52.246;14.408;2022-10-31T12:22:29;22.60;;;12.15;;
44508;SDS011;30214;52.246;14.408;2022-10-31T12:26:29;29.00;;;14.55;;
44508;SDS011;30214;52.246;14.408;2022-10-31T12:30:46;25.52;;;14.45;;
44508;SDS011;30214;52.246;14.408;2022-10-31T12:38:36;21.42;;;10.98;;
44508;SDS011;30214;52.246;14.408;2022-10-31T12:46:09;20.02;;;9.27;;
44508;SDS011;30214;52.246;14.408;2022-10-31T13:52:28;17.10;;;11.85;;
44508;SDS011;30214;52.246;14.408;2022-10-31T13:55:39;25.20;;;12.70;;
44508;SDS011;30214;52.246;14.408;2022-10-31T13:59:34;21.45;;;9.05;;
44508;SDS011;30214;52.246;14.408;2022-10-31T14:02:57;25.20;;;9.73;;
44508;SDS011;30214;52.246;14.408;2022-10-31T14:06:33;16.55;;;8.70;;
44508;SDS011;30214;52.246;14.408;2022-10-31T14:10:06;17.05;;;9.80;;
44508;SDS011;30214;52.246;14.408;2022-10-31T14:13:36;15.82;;;9.32;;
44508;SDS011;30214;52.246;14.408;2022-10-31T14:16:52;21.17;;;10.27;;
44508;SDS011;30214;52.246;14.408;2022-10-31T14:20:32;18.83;;;9.98;;
44508;SDS011;30214;52.246;14.408;2022-10-31T14:24:48;21.98;;;10.60;;
44508;SDS011;30214;52.246;14.408;2022-10-31T14:28:40;25.38;;;10.20;;
44508;SDS011;30214;52.246;14.408;2022-10-31T14:32:25;20.90;;;7.90;;
44508;SDS011;30214;52.246;14.408;2022-10-31T14:35:36;16.02;;;8.43;;
44508;SDS011;30214;52.246;14.408;2022-10-31T14:39:13;13.70;;;8.35;;
44508;SDS011;30214;52.246;14.408;2022-10-31T14:50:23;22.20;;;9.75;;
44508;SDS011;30214;52.246;14.408;2022-10-31T14:53:57;27.45;;;14.75;;
44508;SDS011;30214;52.246;14.408;2022-10-31T14:57:36;20.38;;;11.18;;
44508;SDS011;30214;52.246;14.408;2022-10-31T15:01:38;19.80;;;9.90;;
44508;SDS011;30214;52.246;14.408;2022-10-31T15:05:45;18.65;;;10.25;;
44508;SDS011;30214;52.246;14.408;2022-10-31T15:13:06;17.45;;;9.60;;
44508;SDS011;30214;52.246;14.408;2022-10-31T15:23:54;18.15;;;8.75;;
44508;SDS011;30214;52.246;14.408;2022-10-31T15:27:09;19.05;;;8.52;;
44508;SDS011;30214;52.246;14.408;2022-10-31T15:30:29;15.48;;;8.38;;
44508;SDS011;30214;52.246;14.408;2022-10-31T15:33:27;14.82;;;9.23;;
44508;SDS011;30214;52.246;14.408;2022-10-31T15:40:59;17.35;;;9.90;;
44508;SDS011;30214;52.246;14.408;2022-10-31T15:44:43;17.67;;;9.00;;
44508;SDS011;30214;52.246;14.408;2022-10-31T15:48:34;20.08;;;9.82;;
44508;SDS011;30214;52.246;14.408;2022-10-31T15:59:38;18.50;;;9.95;;
44508;SDS011;30214;52.246;14.408;2022-10-31T16:03:28;19.13;;;8.93;;
44508;SDS011;30214;52.246;14.408;2022-10-31T16:06:59;20.95;;;9.02;;
44508;SDS011;30214;52.246;14.408;2022-10-31T16:26:38;23.00;;;10.55;;
44508;SDS011;30214;52.246;14.408;2022-10-31T16:45:37;29.05;;;10.10;;
44508;SDS011;30214;52.246;14.408;2022-10-31T16:49:07;12.85;;;8.13;;
44508;SDS011;30214;52.246;14.408;2022-10-31T16:53:05;20.50;;;10.07;;
44508;SDS011;30214;52.246;14.408;2022-10-31T16:56:20;17.63;;;11.68;;
44508;SDS011;30214;52.246;14.408;2022-10-31T17:18:58;17.92;;;10.80;;
44508;SDS011;30214;52.246;14.408;2022-10-31T17:22:28;29.77;;;16.25;;
44508;SDS011;30214;52.246;14.408;2022-10-31T17:26:48;25.02;;;12.57;;
44508;SDS011;30214;52.246;14.408;2022-10-31T17:30:08;25.30;;;15.02;;
44508;SDS011;30214;52.246;14.408;2022-10-31T17:33:38;24.60;;;15.88;;
44508;SDS011;30214;52.246;14.408;2022-10-31T17:36:57;36.17;;;21.45;;
44508;SDS011;30214;52.246;14.408;2022-10-31T17:40:38;37.60;;;24.10;;
44508;SDS011;30214;52.246;14.408;2022-10-31T17:44:08;32.47;;;18.65;;
44508;SDS011;30214;52.246;14.408;2022-10-31T17:47:28;25.35;;;15.68;;
44508;SDS011;30214;52.246;14.408;2022-10-31T17:54:28;30.70;;;18.77;;
44508;SDS011;30214;52.246;14.408;2022-10-31T17:57:18;33.05;;;19.20;;
44508;SDS011;30214;52.246;14.408;2022-10-31T18:00:38;34.97;;;19.98;;
44508;SDS011;30214;52.246;14.408;2022-10-31T18:04:09;30.02;;;19.45;;
44508;SDS011;30214;52.246;14.408;2022-10-31T18:11:27;30.17;;;20.50;;
44508;SDS011;30214;52.246;14.408;2022-10-31T18:14:18;30.15;;;18.63;;
44508;SDS011;30214;52.246;14.408;2022-10-31T18:17:30;33.08;;;18.33;;
44508;SDS011;30214;52.246;14.408;2022-10-31T18:21:08;34.63;;;18.10;;
44508;SDS011;30214;52.246;14.408;2022-10-31T18:32:25;32.38;;;18.88;;
44508;SDS011;30214;52.246;14.408;2022-10-31T18:36:02;25.58;;;17.20;;
44508;SDS011;30214;52.246;14.408;2022-10-31T18:39:36;28.95;;;18.58;;
44508;SDS011;30214;52.246;14.408;2022-10-31T18:42:55;30.88;;;16.35;;
44508;SDS011;30214;52.246;14.408;2022-10-31T18:49:58;33.50;;;20.40;;
44508;SDS011;30214;52.246;14.408;2022-10-31T18:53:48;29.20;;;20.20;;
44508;SDS011;30214;52.246;14.408;2022-10-31T18:57:18;30.50;;;18.80;;
44508;SDS011;30214;52.246;14.408;2022-10-31T19:01:32;30.13;;;16.67;;
44508;SDS011;30214;52.246;14.408;2022-10-31T19:05:19;31.75;;;17.70;;
44508;SDS011;30214;52.246;14.408;2022-10-31T19:08:27;32.75;;;20.60;;
44508;SDS011;30214;52.246;14.408;2022-10-31T19:12:17;28.33;;;17.42;;
44508;SDS011;30214;52.246;14.408;2022-10-31T19:16:07;32.90;;;19.73;;
44508;SDS011;30214;52.246;14.408;2022-10-31T19:19:48;32.95;;;18.17;;
44508;SDS011;30214;52.246;14.408;2022-10-31T19:27:25;32.75;;;18.25;;
44508;SDS011;30214;52.246;14.408;2022-10-31T19:30:38;33.70;;;19.83;;
44508;SDS011;30214;52.246;14.408;2022-10-31T19:34:08;33.65;;;19.98;;
44508;SDS011;30214;52.246;14.408;2022-10-31T19:37:19;29.33;;;18.50;;
44508;SDS011;30214;52.246;14.408;2022-10-31T19:44:18;33.08;;;18.55;;
44508;SDS011;30214;52.246;14.408;2022-10-31T19:47:28;33.22;;;18.42;;
44508;SDS011;30214;52.246;14.408;2022-10-31T19:51:05;25.73;;;17.52;;
44508;SDS011;30214;52.246;14.408;2022-10-31T19:54:42;32.08;;;16.90;;
44508;SDS011;30214;52.246;14.408;2022-10-31T20:05:48;28.75;;;17.50;;
44508;SDS011;30214;52.246;14.408;2022-10-31T20:09:08;34.42;;;21.23;;
44508;SDS011;30214;52.246;14.408;2022-10-31T20:12:18;42.70;;;23.05;;
44508;SDS011;30214;52.246;14.408;2022-10-31T20:15:45;36.47;;;20.65;;
44508;SDS011;30214;52.246;14.408;2022-10-31T20:27:09;40.25;;;21.77;;
44508;SDS011;30214;52.246;14.408;2022-10-31T20:30:08;33.38;;;18.30;;
44508;SDS011;30214;52.246;14.408;2022-10-31T20:33:48;34.60;;;20.92;;
44508;SDS011;30214;52.246;14.408;2022-10-31T20:37:18;37.72;;;21.25;;
44508;SDS011;30214;52.246;14.408;2022-10-31T20:52:25;101.63;;;29.10;;
44508;SDS011;30214;52.246;14.408;2022-10-31T20:56:09;87.35;;;25.52;;
44508;SDS011;30214;52.246;14.408;2022-10-31T20:59:40;36.38;;;21.23;;
44508;SDS011;30214;52.246;14.408;2022-10-31T21:03:39;31.08;;;18.73;;
44508;SDS011;30214;52.246;14.408;2022-10-31T21:10:38;36.53;;;21.17;;
44508;SDS011;30214;52.246;14.408;2022-10-31T21:14:19;33.42;;;20.20;;
44508;SDS011;30214;52.246;14.408;2022-10-31T21:17:57;32.75;;;19.63;;
44508;SDS011;30214;52.246;14.408;2022-10-31T21:21:09;22.60;;;16.73;;
44508;SDS011;30214;52.246;14.408;2022-10-31T21:32:48;28.42;;;16.20;;
44508;SDS011;30214;52.246;14.408;2022-10-31T21:36:22;28.10;;;16.52;;
44508;SDS011;30214;52.246;14.408;2022-10-31T21:39:48;25.65;;;15.32;;
44508;SDS011;30214;52.246;14.408;2022-10-31T21:42:58;29.88;;;15.63;;
44508;SDS011;30214;52.246;14.408;2022-10-31T21:46:36;33.47;;;19.35;;
44508;SDS011;30214;52.246;14.408;2022-10-31T21:54:07;32.70;;;19.38;;
44508;SDS011;30214;52.246;14.408;2022-10-31T21:57:38;33.50;;;19.15;;
44508;SDS011;30214;52.246;14.408;2022-10-31T22:01:04;35.38;;;19.67;;
44508;SDS011;30214;52.246;14.408;2022-10-31T22:04:34;31.77;;;20.50;;
44508;SDS011;30214;52.246;14.408;2022-10-31T22:11:57;35.90;;;19.33;;
44508;SDS011;30214;52.246;14.408;2022-10-31T22:15:26;42.80;;;20.65;;
44508;SDS011;30214;52.246;14.408;2022-10-31T22:18:28;31.85;;;19.13;;
44508;SDS011;30214;52.246;14.408;2022-10-31T22:21:49;34.10;;;20.77;;
44508;SDS011;30214;52.246;14.408;2022-10-31T22:24:58;31.60;;;18.40;;
44508;SDS011;30214;52.246;14.408;2022-10-31T22:32:29;234.77;;;27.08;;
44508;SDS011;30214;52.246;14.408;2022-10-31T22:35:58;82.35;;;19.48;;
44508;SDS011;30214;52.246;14.408;2022-10-31T22:39:25;32.78;;;19.60;;
44508;SDS011;30214;52.246;14.408;2022-10-31T22:43:00;33.03;;;20.40;;
44508;SDS011;30214;52.246;14.408;2022-10-31T22:46:47;52.33;;;24.15;;
44508;SDS011;30214;52.246;14.408;2022-10-31T22:50:40;58.67;;;21.95;;
44508;SDS011;30214;52.246;14.408;2022-10-31T22:54:10;48.92;;;22.25;;
44508;SDS011;30214;52.246;14.408;2022-10-31T22:57:28;43.10;;;22.33;;
44508;SDS011;30214;52.246;14.408;2022-10-31T23:00:39;44.15;;;22.08;;
44508;SDS011;30214;52.246;14.408;2022-10-31T23:07:28;76.35;;;20.63;;
44508;SDS011;30214;52.246;14.408;2022-10-31T23:14:58;70.65;;;19.98;;
44508;SDS011;30214;52.246;14.408;2022-10-31T23:19:02;98.03;;;19.90;;
44508;SDS011;30214;52.246;14.408;2022-10-31T23:22:28;224.52;;;25.25;;
44508;SDS011;30214;52.246;14.408;2022-10-31T23:25:39;185.30;;;24.25;;
44508;SDS011;30214;52.246;14.408;2022-10-31T23:29:27;167.93;;;21.17;;
44508;SDS011;30214;52.246;14.408;2022-10-31T23:33:07;146.05;;;21.85;;
44508;SDS011;30214;52.246;14.408;2022-10-31T23:41:09;111.82;;;18.70;;
44508;SDS011;30214;52.246;14.408;2022-10-31T23:44:42;95.43;;;20.67;;
44508;SDS011;30214;52.246;14.408;2022-10-31T23:48:17;122.20;;;21.05;;
44508;SDS011;30214;52.246;14.408;2022-10-31T23:51:44;131.75;;;23.33;;
44508;SDS011;30214;52.246;14.408;2022-10-31T23:55:07;108.47;;;20.73;;
44508;SDS011;30214;52.246;14.408;2022-10-31T23:58:29;58.13;;;18.92;;
